Time;durP1;ratioP1;P1;durP2;ratioP2;P2;SDS_P1;SDS_P2;PMS_P1;PMS_P2;Temp;Humidity;BMP_temperature;BMP_pressure;BME280_temperature;BME280_humidity;BME280_pressure;Samples;Min_cycle;Max_cycle;Signal;HPM_P1;HPM_P2
2023/01/19 00:00:02;;;;;;;381.25;209.23;;;;;;;12.54;99.06;98664.50;322601;30;5783;-72
2023/01/19 00:00:14;;;;;;;384.65;213.07;;;;;;;12.53;99.51;98670.69;316329;30;4380;-71
2023/01/19 00:00:25;;;;;;;385.88;215.77;;;;;;;12.54;99.43;98659.25;320679;30;3842;-71
2023/01/19 00:00:35;;;;;;;384.02;212.02;;;;;;;12.56;99.69;98667.84;321597;30;3801;-71
2023/01/19 00:00:45;;;;;;;380.83;210.38;;;;;;;12.59;99.54;98667.63;322309;30;3480;-73
2023/01/19 00:00:56;;;;;;;384.83;208.73;;;;;;;12.61;99.32;98671.00;320612;30;5921;-72
2023/01/19 00:01:06;;;;;;;388.30;212.53;;;;;;;12.61;99.41;98668.38;321226;30;3796;-72
2023/01/19 00:01:17;;;;;;;390.75;212.00;;;;;;;12.63;99.27;98669.13;315891;30;3350;-71
2023/01/19 00:01:27;;;;;;;387.30;216.18;;;;;;;12.64;98.86;98669.03;315027;31;1096;-71
2023/01/19 00:01:38;;;;;;;387.00;213.33;;;;;;;12.65;99.06;98668.09;307687;31;5980;-71
2023/01/19 00:01:48;;;;;;;392.55;218.75;;;;;;;12.66;98.75;98667.16;309771;31;3684;-71
2023/01/19 00:01:58;;;;;;;395.50;218.67;;;;;;;12.67;98.42;98670.63;307598;31;4042;-71
2023/01/19 00:02:09;;;;;;;395.77;218.10;;;;;;;12.68;98.33;98667.03;310816;31;3935;-72
2023/01/19 00:02:19;;;;;;;392.42;210.82;;;;;;;12.69;98.38;98671.34;306013;31;4656;-72
2023/01/19 00:02:30;;;;;;;390.00;207.70;;;;;;;12.71;98.08;98666.00;303639;32;6116;-71
2023/01/19 00:02:42;;;;;;;388.33;203.95;;;;;;;12.72;97.88;98665.91;302774;32;4566;-71
2023/01/19 00:02:53;;;;;;;385.70;203.15;;;;;;;12.74;98.01;98674.53;303567;32;4426;-71
2023/01/19 00:03:04;;;;;;;382.45;204.35;;;;;;;12.76;97.71;98675.28;300749;32;4407;-72
2023/01/19 00:03:17;;;;;;;384.55;205.63;;;;;;;12.75;97.79;98678.84;301030;32;6028;-72
2023/01/19 00:03:27;;;;;;;389.77;206.73;;;;;;;12.77;97.82;98674.31;294794;33;4578;-71
2023/01/19 00:03:38;;;;;;;390.52;207.52;;;;;;;12.77;97.25;98676.13;294824;33;6243;-71
2023/01/19 00:03:48;;;;;;;393.37;205.37;;;;;;;12.78;97.36;98669.91;296196;32;3990;-72
2023/01/19 00:03:58;;;;;;;391.47;203.93;;;;;;;12.77;97.43;98679.59;296230;33;6178;-72
2023/01/19 00:04:09;;;;;;;391.20;201.27;;;;;;;12.77;97.43;98670.88;294557;33;5148;-72
2023/01/19 00:04:19;;;;;;;387.47;201.60;;;;;;;12.78;97.67;98678.63;295415;33;5744;-72
2023/01/19 00:04:30;;;;;;;386.58;208.32;;;;;;;12.78;97.06;98673.38;294627;33;6344;-72
2023/01/19 00:04:40;;;;;;;392.47;210.87;;;;;;;12.80;97.61;98678.53;295384;33;6181;-72
2023/01/19 00:04:50;;;;;;;394.05;212.02;;;;;;;12.81;97.32;98677.59;296299;32;6128;-72
2023/01/19 00:05:03;;;;;;;393.63;209.97;;;;;;;12.81;97.46;98672.34;296949;33;6529;-72
2023/01/19 00:05:13;;;;;;;389.52;209.25;;;;;;;12.73;97.10;98672.00;292743;33;3631;-71
2023/01/19 00:05:24;;;;;;;389.25;207.73;;;;;;;12.68;97.34;98674.91;295700;32;3827;-72
2023/01/19 00:05:34;;;;;;;390.93;203.40;;;;;;;12.65;97.78;98669.88;291781;33;4323;-73
2023/01/19 00:05:45;;;;;;;391.17;207.95;;;;;;;12.64;97.77;98678.69;289011;33;5915;-72
2023/01/19 00:05:55;;;;;;;390.30;210.63;;;;;;;12.64;97.83;98678.69;289271;34;4353;-72
2023/01/19 00:06:06;;;;;;;387.00;210.17;;;;;;;12.65;97.79;98677.75;285706;34;6786;-72
2023/01/19 00:06:16;;;;;;;385.70;207.07;;;;;;;12.64;97.64;98676.06;284909;34;7913;-71
2023/01/19 00:06:27;;;;;;;384.77;204.32;;;;;;;12.63;97.80;98679.63;283854;34;6212;-71
2023/01/19 00:06:37;;;;;;;382.47;202.80;;;;;;;12.65;97.74;98670.72;282913;34;8005;-71
2023/01/19 00:06:48;;;;;;;385.57;203.13;;;;;;;12.67;97.47;98665.34;282194;34;8657;-72
2023/01/19 00:07:01;;;;;;;384.30;200.60;;;;;;;12.66;97.48;98672.41;283237;34;5546;-72
2023/01/19 00:07:12;;;;;;;386.27;209.75;;;;;;;12.66;97.47;98668.94;278750;35;1548;-72
2023/01/19 00:07:22;;;;;;;386.27;214.50;;;;;;;12.65;97.21;98668.09;275473;35;7571;-72
2023/01/19 00:07:33;;;;;;;387.42;208.63;;;;;;;12.66;96.94;98666.31;276477;35;5454;-72
2023/01/19 00:07:43;;;;;;;384.80;203.10;;;;;;;12.68;97.27;98669.66;271630;36;4834;-72
2023/01/19 00:07:53;;;;;;;378.80;198.85;;;;;;;12.70;97.28;98666.94;267625;35;6211;-72
2023/01/19 00:08:13;;;;;;;380.03;201.37;;;;;;;12.69;97.29;98657.38;270016;35;7827;-72
2023/01/19 00:08:23;;;;;;;383.30;199.68;;;;;;;12.59;97.88;98667.63;266932;36;9310;-73
2023/01/19 00:09:56;;;;;;;378.53;190.79;;;;;;;12.57;98.31;98666.88;2476983;27;20505;-72
2023/01/19 00:10:08;;;;;;;383.13;203.07;;;;;;;12.58;98.20;98671.19;349755;28;5894;-72
2023/01/19 00:10:21;;;;;;;387.58;201.27;;;;;;;12.58;98.32;98677.28;347861;28;4400;-72
2023/01/19 00:10:31;;;;;;;389.92;203.57;;;;;;;12.60;98.28;98669.31;347790;28;6433;-72
2023/01/19 00:10:43;;;;;;;391.00;201.37;;;;;;;12.62;98.01;98672.69;346861;28;3874;-72
2023/01/19 00:10:53;;;;;;;387.08;197.65;;;;;;;12.62;97.94;98677.94;344645;28;3516;-71
2023/01/19 00:11:04;;;;;;;381.87;197.37;;;;;;;12.62;97.95;98677.94;347983;28;3642;-71
2023/01/19 00:11:16;;;;;;;379.50;197.35;;;;;;;12.60;98.08;98682.44;345238;28;3712;-72
2023/01/19 00:11:26;;;;;;;378.55;197.20;;;;;;;12.58;98.23;98676.44;347119;28;3642;-72
2023/01/19 00:11:37;;;;;;;382.50;200.40;;;;;;;12.57;98.24;98680.00;344155;28;4414;-72
2023/01/19 00:11:47;;;;;;;383.07;204.23;;;;;;;12.53;98.12;98684.66;346518;28;1408;-72
2023/01/19 00:11:58;;;;;;;385.17;205.95;;;;;;;12.49;98.42;98683.16;346028;28;3444;-72
2023/01/19 00:12:09;;;;;;;383.50;202.30;;;;;;;12.47;98.58;98679.78;348404;28;3630;-72
2023/01/19 00:12:19;;;;;;;386.17;204.47;;;;;;;12.42;99.05;98686.25;345735;28;5953;-72
2023/01/19 00:12:29;;;;;;;387.23;203.88;;;;;;;12.37;99.28;98683.91;349779;28;3595;-74
2023/01/19 00:12:40;;;;;;;387.33;202.67;;;;;;;12.35;99.62;98684.97;347516;28;4460;-72
2023/01/19 00:12:50;;;;;;;388.15;195.20;;;;;;;12.31;99.79;98690.41;348562;28;2128;-72
2023/01/19 00:13:00;;;;;;;383.20;194.47;;;;;;;12.22;100.00;98688.34;344181;28;4292;-72
2023/01/19 00:13:11;;;;;;;386.57;196.30;;;;;;;12.15;100.00;98684.41;346879;28;6386;-72
2023/01/19 00:13:22;;;;;;;383.65;195.10;;;;;;;12.12;100.00;98678.53;345828;28;5271;-71
2023/01/19 00:13:32;;;;;;;384.58;195.32;;;;;;;12.08;100.00;98677.88;345877;28;3861;-73
2023/01/19 00:13:48;;;;;;;384.07;198.90;;;;;;;12.06;100.00;98674.53;345204;28;5977;-72
2023/01/19 00:13:58;;;;;;;383.38;200.00;;;;;;;12.09;100.00;98666.47;345935;28;1187;-72
2023/01/19 00:14:09;;;;;;;381.15;199.75;;;;;;;12.11;100.00;98663.75;342492;28;5993;-72
2023/01/19 00:14:19;;;;;;;384.57;199.87;;;;;;;12.12;100.00;98663.66;346432;28;2047;-72
2023/01/19 00:14:30;;;;;;;385.63;203.43;;;;;;;12.15;100.00;98663.44;343736;28;5985;-72
2023/01/19 00:14:40;;;;;;;387.63;204.83;;;;;;;12.18;100.00;98662.41;345640;28;3491;-72
2023/01/19 00:14:51;;;;;;;387.05;203.45;;;;;;;12.22;100.00;98664.72;339318;28;4302;-72
2023/01/19 00:15:01;;;;;;;386.00;203.30;;;;;;;12.24;100.00;98657.59;341797;28;3592;-73
2023/01/19 00:15:11;;;;;;;386.27;199.57;;;;;;;12.24;100.00;98665.47;337800;28;5855;-71
2023/01/19 00:15:22;;;;;;;389.27;197.70;;;;;;;12.25;100.00;98669.78;340689;29;1394;-72
2023/01/19 00:15:32;;;;;;;387.03;193.13;;;;;;;12.27;100.00;98667.06;335620;29;6386;-71
2023/01/19 00:15:42;;;;;;;382.88;191.35;;;;;;;12.26;100.00;98660.97;336954;29;1070;-71
2023/01/19 00:15:53;;;;;;;377.23;188.17;;;;;;;12.28;100.00;98669.59;338935;28;6635;-72
2023/01/19 00:16:04;;;;;;;383.95;186.88;;;;;;;12.32;100.00;98671.09;343137;28;1977;-72
2023/01/19 00:16:16;;;;;;;385.42;190.88;;;;;;;12.33;100.00;98675.41;339246;28;5940;-72
2023/01/19 00:16:26;;;;;;;384.73;193.88;;;;;;;12.35;100.00;98674.47;337632;29;3881;-72
2023/01/19 00:16:37;;;;;;;379.73;195.73;;;;;;;12.36;100.00;98677.00;339544;28;5695;-72
2023/01/19 00:16:48;;;;;;;379.85;190.93;;;;;;;12.38;99.94;98684.75;341101;28;3660;-72
2023/01/19 00:17:00;;;;;;;385.20;192.70;;;;;;;12.39;99.97;98682.03;339918;28;3472;-72
2023/01/19 00:17:10;;;;;;;384.55;191.18;;;;;;;12.42;99.53;98686.25;342065;28;3920;-72
2023/01/19 00:17:21;;;;;;;384.65;191.70;;;;;;;12.43;99.52;98685.31;340823;28;5938;-72
2023/01/19 00:17:31;;;;;;;379.80;188.57;;;;;;;12.44;99.45;98679.97;341776;28;5335;-72
2023/01/19 00:17:42;;;;;;;383.05;192.20;;;;;;;12.45;99.05;98681.66;344585;28;3504;-72
2023/01/19 00:17:52;;;;;;;381.90;192.17;;;;;;;12.46;99.07;98677.25;344343;28;3742;-72
2023/01/19 00:18:02;;;;;;;382.40;194.83;;;;;;;12.46;99.06;98678.09;345084;28;3493;-72
2023/01/19 00:18:13;;;;;;;379.33;192.70;;;;;;;12.46;99.01;98678.09;340478;28;4299;-72
2023/01/19 00:18:24;;;;;;;377.30;191.77;;;;;;;12.43;98.40;98673.03;339661;28;7434;-72
2023/01/19 00:18:35;;;;;;;376.15;187.02;;;;;;;12.42;98.57;98676.59;340492;28;4858;-72
2023/01/19 00:18:45;;;;;;;375.77;187.10;;;;;;;12.40;98.75;98678.47;341081;28;3456;-72
2023/01/19 00:18:55;;;;;;;374.63;187.88;;;;;;;12.40;98.65;98677.63;341892;28;1380;-72
2023/01/19 00:19:06;;;;;;;381.97;198.30;;;;;;;12.39;98.74;98676.78;335856;29;5887;-72
2023/01/19 00:19:16;;;;;;;387.02;201.68;;;;;;;12.38;98.87;98674.28;339199;29;2025;-72
2023/01/19 00:19:27;;;;;;;390.40;205.87;;;;;;;12.37;98.89;98681.31;332825;29;4395;-72
2023/01/19 00:19:37;;;;;;;383.83;196.88;;;;;;;12.39;98.97;98681.19;335511;29;6114;-72
2023/01/19 00:19:48;;;;;;;379.57;193.60;;;;;;;12.38;99.00;98690.00;334179;29;3965;-72
2023/01/19 00:19:58;;;;;;;379.30;188.73;;;;;;;12.40;98.94;98682.88;336484;29;3267;-72
2023/01/19 00:20:09;;;;;;;377.53;186.87;;;;;;;12.41;98.66;98687.19;333178;29;3875;-72
2023/01/19 00:20:19;;;;;;;375.50;186.52;;;;;;;12.40;98.47;98693.38;331589;29;5580;-72
2023/01/19 00:20:31;;;;;;;369.70;183.15;;;;;;;12.35;98.69;98684.97;334833;29;3835;-72
2023/01/19 00:20:44;;;;;;;370.42;186.10;;;;;;;12.31;98.79;98689.56;329085;29;3306;-72
2023/01/19 00:20:57;;;;;;;374.30;186.60;;;;;;;12.28;98.99;98685.34;328091;29;3700;-72
2023/01/19 00:21:07;;;;;;;378.20;186.13;;;;;;;12.27;98.70;98683.66;328397;29;1936;-72
2023/01/19 00:21:18;;;;;;;381.17;180.70;;;;;;;12.27;98.78;98678.41;326911;29;4252;-71
2023/01/19 00:21:28;;;;;;;381.17;171.40;;;;;;;12.27;98.46;98683.66;327118;29;3627;-72
2023/01/19 00:21:38;;;;;;;380.55;162.40;;;;;;;12.30;98.57;98677.38;326260;29;3452;-71
2023/01/19 00:21:49;;;;;;;376.37;158.00;;;;;;;12.30;98.50;98683.47;324754;30;5953;-71
2023/01/19 00:22:02;;;;;;;368.67;156.17;;;;;;;12.30;98.59;98678.22;327697;30;4016;-72
2023/01/19 00:22:12;;;;;;;366.02;159.65;;;;;;;12.33;98.58;98677.19;316897;30;6702;-71
2023/01/19 00:22:22;;;;;;;365.27;158.88;;;;;;;12.33;98.71;98683.28;319019;30;3755;-71
2023/01/19 00:22:33;;;;;;;371.43;161.73;;;;;;;12.35;98.54;98679.72;318725;30;3955;-71
2023/01/19 00:22:43;;;;;;;374.08;159.40;;;;;;;12.35;98.50;98680.56;320677;30;3817;-72
2023/01/19 00:22:54;;;;;;;374.37;160.63;;;;;;;12.37;98.74;98680.47;318636;30;3730;-72
2023/01/19 00:23:06;;;;;;;378.33;164.95;;;;;;;12.37;98.57;98690.94;322566;30;3678;-72
2023/01/19 00:23:17;;;;;;;381.33;169.02;;;;;;;12.35;98.80;98682.34;322558;30;5958;-72
2023/01/19 00:23:27;;;;;;;376.85;167.43;;;;;;;12.33;98.68;98679.81;323182;30;884;-72
2023/01/19 00:23:38;;;;;;;382.73;164.60;;;;;;;12.32;99.08;98676.34;316814;30;3809;-72
2023/01/19 00:23:51;;;;;;;386.00;163.05;;;;;;;12.33;98.92;98680.66;319309;30;2087;-72
2023/01/19 00:24:01;;;;;;;385.83;162.68;;;;;;;12.37;99.07;98677.84;317082;30;3942;-72
2023/01/19 00:24:12;;;;;;;377.90;163.13;;;;;;;12.39;98.86;98675.94;321417;30;3624;-72
2023/01/19 00:24:23;;;;;;;372.35;168.77;;;;;;;12.42;98.76;98670.50;314473;30;4350;-72
2023/01/19 00:24:33;;;;;;;375.70;170.87;;;;;;;12.45;98.84;98667.69;316603;30;3410;-72
2023/01/19 00:24:44;;;;;;;372.80;169.30;;;;;;;12.48;98.75;98672.75;319659;30;873;-72
2023/01/19 00:24:54;;;;;;;373.40;164.13;;;;;;;12.50;98.43;98673.50;312135;30;5501;-71
2023/01/19 00:25:05;;;;;;;370.58;167.38;;;;;;;12.51;98.38;98680.44;315167;30;3489;-71
2023/01/19 00:25:16;;;;;;;373.80;170.33;;;;;;;12.50;97.95;98674.34;314771;31;6166;-71
2023/01/19 00:25:26;;;;;;;375.25;171.95;;;;;;;12.53;98.24;98673.31;313353;31;4057;-71
2023/01/19 00:25:43;;;;;;;380.95;172.57;;;;;;;12.53;97.79;98675.94;310072;31;5705;-73
2023/01/19 00:25:53;;;;;;;385.90;176.93;;;;;;;12.55;97.55;98676.66;308367;31;4395;-72
2023/01/19 00:26:04;;;;;;;383.50;177.80;;;;;;;12.55;97.58;98671.41;313686;30;2972;-72
2023/01/19 00:26:15;;;;;;;375.08;168.60;;;;;;;12.55;97.52;98672.25;313021;31;5604;-72
2023/01/19 00:26:27;;;;;;;368.05;163.02;;;;;;;12.57;97.47;98680.00;313213;31;3588;-72
2023/01/19 00:26:39;;;;;;;363.65;159.63;;;;;;;12.57;97.24;98672.97;309222;31;4702;-72
2023/01/19 00:26:49;;;;;;;364.25;161.50;;;;;;;12.58;97.25;98679.06;311220;31;5194;-72
2023/01/19 00:27:02;;;;;;;367.37;166.77;;;;;;;12.56;96.94;98673.91;307967;31;3979;-72
2023/01/19 00:27:12;;;;;;;367.02;163.82;;;;;;;12.57;97.06;98680.00;307761;32;3653;-72
2023/01/19 00:27:23;;;;;;;369.05;165.13;;;;;;;12.57;97.11;98674.75;305577;31;3680;-72
2023/01/19 00:27:34;;;;;;;368.90;166.10;;;;;;;12.58;96.88;98671.19;303432;32;3964;-72
2023/01/19 00:27:48;;;;;;;372.47;170.20;;;;;;;12.59;97.11;98672.88;298653;32;5514;-72
2023/01/19 00:27:58;;;;;;;370.38;164.73;;;;;;;12.52;97.25;98667.22;297012;32;4634;-72
2023/01/19 00:28:13;;;;;;;369.40;166.43;;;;;;;12.46;96.93;98664.13;300038;32;6631;-72
2023/01/19 00:28:23;;;;;;;372.15;167.68;;;;;;;12.40;97.55;98661.91;296490;32;9739;-72
2023/01/19 00:28:33;;;;;;;373.67;165.57;;;;;;;12.37;97.94;98662.94;297752;32;6417;-72
2023/01/19 00:28:44;;;;;;;375.63;167.60;;;;;;;12.35;98.34;98658.72;292972;33;4409;-72
2023/01/19 00:28:54;;;;;;;376.08;171.10;;;;;;;12.33;98.60;98656.19;296136;33;5849;-72
2023/01/19 00:29:08;;;;;;;372.70;172.27;;;;;;;12.30;98.56;98657.22;290861;33;7110;-72
2023/01/19 00:29:19;;;;;;;371.20;166.85;;;;;;;12.35;99.08;98662.19;290399;33;6728;-72
2023/01/19 00:29:33;;;;;;;375.85;162.63;;;;;;;12.35;98.97;98664.81;286638;34;5910;-72
2023/01/19 00:29:43;;;;;;;380.13;162.88;;;;;;;12.35;99.03;98672.69;287820;34;5713;-72
2023/01/19 00:29:53;;;;;;;376.03;166.27;;;;;;;12.36;99.06;98666.50;288680;34;5382;-72
2023/01/19 00:30:04;;;;;;;373.25;174.68;;;;;;;12.38;99.09;98669.03;287522;33;4125;-72
2023/01/19 00:30:15;;;;;;;369.83;177.07;;;;;;;12.40;99.07;98672.38;285753;34;3629;-72
2023/01/19 00:30:25;;;;;;;374.17;176.80;;;;;;;12.40;99.07;98680.25;284161;34;4561;-72
2023/01/19 00:30:36;;;;;;;374.83;167.55;;;;;;;12.40;98.93;98677.63;280981;34;6709;-72
2023/01/19 00:30:48;;;;;;;377.05;164.65;;;;;;;12.36;98.99;98681.41;280485;34;8304;-72
2023/01/19 00:30:59;;;;;;;378.40;165.15;;;;;;;12.37;99.11;98677.84;279977;35;6496;-72
2023/01/19 00:31:09;;;;;;;377.23;163.60;;;;;;;12.36;98.92;98676.16;278915;34;10508;-71
2023/01/19 00:31:20;;;;;;;374.35;159.98;;;;;;;12.37;98.89;98683.06;278531;35;10197;-71
2023/01/19 00:31:32;;;;;;;365.80;161.20;;;;;;;12.38;98.95;98690.00;273117;35;7824;-71
2023/01/19 00:31:43;;;;;;;367.23;158.20;;;;;;;12.40;98.91;98682.88;279430;35;669;-72
2023/01/19 00:31:53;;;;;;;369.92;162.13;;;;;;;12.41;98.86;98684.56;276670;35;7407;-74
2023/01/19 00:33:31;;;;;;;370.54;173.91;;;;;;;12.50;98.19;98694.50;2484971;27;20491;-71
2023/01/19 00:33:42;;;;;;;386.67;189.20;;;;;;;12.50;98.54;98697.13;351522;27;3844;-73
2023/01/19 00:33:52;;;;;;;386.13;189.80;;;;;;;12.51;98.10;98691.78;349693;28;3271;-71
2023/01/19 00:34:03;;;;;;;382.93;193.47;;;;;;;12.52;97.81;98687.38;347503;28;2081;-72
2023/01/19 00:34:13;;;;;;;384.00;196.25;;;;;;;12.52;98.02;98682.13;343886;28;4369;-72
2023/01/19 00:34:24;;;;;;;386.90;199.97;;;;;;;12.52;97.98;98688.22;348148;28;3600;-72
2023/01/19 00:34:41;;;;;;;385.10;200.40;;;;;;;12.54;98.00;98680.25;346133;28;5897;-72
2023/01/19 00:34:51;;;;;;;394.95;201.70;;;;;;;12.55;97.76;98680.13;346507;28;4029;-72
2023/01/19 00:35:02;;;;;;;395.17;203.73;;;;;;;12.54;97.42;98678.47;348473;28;1953;-72
2023/01/19 00:35:12;;;;;;;389.00;202.50;;;;;;;12.52;97.50;98674.25;346232;28;4009;-72
2023/01/19 00:35:22;;;;;;;381.27;201.95;;;;;;;12.48;97.57;98675.38;346882;28;6588;-72
2023/01/19 00:35:36;;;;;;;382.33;200.63;;;;;;;12.45;97.76;98672.94;345992;28;3972;-71
2023/01/19 00:35:50;;;;;;;383.27;199.85;;;;;;;12.43;97.71;98677.44;348393;28;3584;-72
2023/01/19 00:36:01;;;;;;;385.05;201.63;;;;;;;12.41;97.91;98676.69;345660;28;4434;-72
2023/01/19 00:36:11;;;;;;;382.80;200.35;;;;;;;12.41;97.92;98676.69;348697;28;1175;-72
2023/01/19 00:36:22;;;;;;;392.13;202.10;;;;;;;12.41;98.33;98674.06;347044;28;4511;-73
2023/01/19 00:36:32;;;;;;;394.27;199.70;;;;;;;12.42;98.02;98676.59;349550;28;4284;-73
2023/01/19 00:36:42;;;;;;;393.52;202.50;;;;;;;12.42;98.04;98681.00;350063;28;3771;-72
2023/01/19 00:36:53;;;;;;;382.60;204.23;;;;;;;12.42;97.85;98681.00;347906;28;3653;-72
2023/01/19 00:37:04;;;;;;;380.77;204.57;;;;;;;12.42;98.01;98688.88;349185;28;3355;-72
2023/01/19 00:37:15;;;;;;;383.55;204.30;;;;;;;12.42;97.98;98686.25;349128;28;6409;-72
2023/01/19 00:37:26;;;;;;;384.63;201.38;;;;;;;12.43;97.70;98687.94;348840;28;1123;-72
2023/01/19 00:37:36;;;;;;;387.40;205.90;;;;;;;12.45;97.62;98686.06;343296;28;5212;-72
2023/01/19 00:37:46;;;;;;;386.73;205.27;;;;;;;12.46;97.46;98685.13;345339;28;1814;-72
2023/01/19 00:37:57;;;;;;;384.42;207.55;;;;;;;12.47;97.67;98679.78;343139;28;4006;-72
2023/01/19 00:38:08;;;;;;;379.70;203.80;;;;;;;12.49;97.34;98682.31;345929;28;2031;-72
2023/01/19 00:38:18;;;;;;;382.02;208.50;;;;;;;12.46;97.20;98682.50;344200;28;4107;-71
2023/01/19 00:38:29;;;;;;;379.15;203.15;;;;;;;12.44;97.23;98684.38;346409;28;1199;-71
2023/01/19 00:38:39;;;;;;;382.00;204.17;;;;;;;12.45;96.95;98686.91;346874;28;6285;-71
2023/01/19 00:38:50;;;;;;;377.65;198.38;;;;;;;12.48;96.72;98685.88;349663;28;2019;-71
2023/01/19 00:39:00;;;;;;;384.50;202.40;;;;;;;12.48;96.67;98683.25;344610;28;6100;-71
2023/01/19 00:39:10;;;;;;;383.50;201.85;;;;;;;12.47;96.68;98678.94;345241;28;2018;-71
2023/01/19 00:39:21;;;;;;;387.90;205.97;;;;;;;12.47;96.41;98684.19;343263;28;5772;-71
2023/01/19 00:39:31;;;;;;;383.00;202.85;;;;;;;12.45;96.23;98686.91;346055;28;1503;-71
2023/01/19 00:39:42;;;;;;;381.90;198.67;;;;;;;12.44;96.68;98693.09;345972;28;4214;-71
2023/01/19 00:39:52;;;;;;;381.92;197.65;;;;;;;12.42;96.51;98687.09;344879;28;6060;-72
2023/01/19 00:40:03;;;;;;;386.53;199.67;;;;;;;12.39;96.51;98683.81;342538;28;4518;-72
2023/01/19 00:40:14;;;;;;;390.45;201.88;;;;;;;12.36;96.97;98691.88;344772;28;3283;-72
2023/01/19 00:40:24;;;;;;;387.83;196.95;;;;;;;12.36;96.68;98684.84;346697;28;3711;-72
2023/01/19 00:40:34;;;;;;;381.17;194.60;;;;;;;12.37;96.38;98690.94;339568;28;4679;-72
2023/01/19 00:40:45;;;;;;;379.30;189.27;;;;;;;12.37;96.24;98688.31;344125;28;3739;-73
2023/01/19 00:40:56;;;;;;;384.13;191.07;;;;;;;12.36;96.42;98697.97;340146;28;3408;-72
2023/01/19 00:41:06;;;;;;;386.65;190.32;;;;;;;12.38;96.19;98690.00;341876;28;2036;-72
2023/01/19 00:41:17;;;;;;;384.67;195.43;;;;;;;12.37;95.60;98694.41;341930;28;3478;-72
2023/01/19 00:42:40;;;;;;;380.10;197.15;;;;;;;12.50;95.48;98699.75;336430;29;6065;-71
2023/01/19 00:42:50;;;;;;;385.85;196.80;;;;;;;12.55;95.37;98692.41;339834;28;3535;-71
2023/01/19 00:43:02;;;;;;;377.63;195.23;;;;;;;12.55;95.20;98692.41;336519;29;3888;-71
2023/01/19 00:43:13;;;;;;;378.08;192.00;;;;;;;12.46;95.01;98698.25;332797;29;6107;-71
2023/01/19 00:43:23;;;;;;;380.63;192.50;;;;;;;12.40;95.25;98696.00;332308;29;3578;-73
2023/01/19 00:43:34;;;;;;;382.20;195.50;;;;;;;12.33;95.28;98703.41;337470;29;6129;-72
2023/01/19 00:43:44;;;;;;;379.92;193.82;;;;;;;12.34;95.29;98699.84;330800;29;5371;-72
2023/01/19 00:43:54;;;;;;;379.67;194.93;;;;;;;12.35;95.22;98700.69;334476;29;3456;-72
2023/01/19 00:44:05;;;;;;;380.33;192.47;;;;;;;12.38;95.40;98705.75;338516;28;4311;-72
2023/01/19 00:44:15;;;;;;;385.00;199.23;;;;;;;12.39;95.14;98702.19;335145;29;3644;-72
2023/01/19 00:44:25;;;;;;;383.87;198.97;;;;;;;12.41;95.13;98705.56;328394;29;6108;-72
2023/01/19 00:44:36;;;;;;;382.35;202.65;;;;;;;12.43;95.08;98706.31;327541;29;6404;-72
2023/01/19 00:44:46;;;;;;;381.47;199.20;;;;;;;12.46;94.88;98703.50;328226;29;4028;-72
2023/01/19 00:44:57;;;;;;;389.92;204.40;;;;;;;12.46;94.82;98703.50;333462;29;3893;-72
2023/01/19 00:45:08;;;;;;;393.43;205.80;;;;;;;12.40;94.99;98693.38;331375;29;5410;-72
2023/01/19 00:45:21;;;;;;;389.42;207.00;;;;;;;12.36;94.44;98697.97;332221;29;6335;-72
2023/01/19 00:45:31;;;;;;;384.63;198.93;;;;;;;12.34;94.58;98694.59;328532;29;5897;-72
2023/01/19 00:45:44;;;;;;;383.05;194.57;;;;;;;12.35;94.57;98696.28;330008;29;2100;-72
2023/01/19 00:45:54;;;;;;;382.30;194.82;;;;;;;12.36;94.42;98694.50;327225;29;3552;-72
2023/01/19 00:46:05;;;;;;;378.63;201.87;;;;;;;12.33;94.48;98706.88;327467;30;3437;-72
2023/01/19 00:46:15;;;;;;;382.33;203.70;;;;;;;12.34;94.36;98699.84;322475;30;4241;-72
2023/01/19 00:46:26;;;;;;;385.47;204.97;;;;;;;12.36;94.39;98707.63;321785;30;3315;-72
2023/01/19 00:46:37;;;;;;;394.07;203.03;;;;;;;12.36;94.43;98702.38;321410;30;2842;-72
2023/01/19 00:46:47;;;;;;;387.95;199.13;;;;;;;12.37;94.44;98709.31;323524;30;3693;-72
2023/01/19 00:46:57;;;;;;;387.20;198.63;;;;;;;12.36;94.21;98700.59;323218;30;1745;-72
2023/01/19 00:47:08;;;;;;;382.73;197.97;;;;;;;12.38;93.90;98700.50;320211;30;3752;-72
2023/01/19 00:47:19;;;;;;;386.75;205.20;;;;;;;12.42;93.81;98704.63;319676;30;9275;-72
2023/01/19 00:47:30;;;;;;;385.45;199.63;;;;;;;12.46;93.63;98708.75;319123;30;3523;-72
2023/01/19 00:47:41;;;;;;;381.75;190.65;;;;;;;12.48;93.49;98709.50;321132;30;6171;-72
2023/01/19 00:47:56;;;;;;;379.27;185.43;;;;;;;12.50;93.45;98711.09;320531;30;5618;-72
2023/01/19 00:48:06;;;;;;;380.65;187.75;;;;;;;12.52;93.63;98718.84;323400;30;3251;-72
2023/01/19 00:48:16;;;;;;;385.20;198.03;;;;;;;12.54;93.04;98722.22;315102;30;6220;-72
2023/01/19 00:48:27;;;;;;;380.83;199.03;;;;;;;12.52;92.83;98719.69;317785;30;3403;-73
2023/01/19 00:48:37;;;;;;;382.17;208.13;;;;;;;12.53;92.67;98720.53;314141;30;6131;-73
2023/01/19 00:48:48;;;;;;;382.08;205.20;;;;;;;12.52;92.38;98717.06;316291;31;2089;-73
2023/01/19 00:48:58;;;;;;;382.07;202.63;;;;;;;12.51;92.09;98712.75;312040;30;4295;-73
2023/01/19 00:49:08;;;;;;;379.50;195.27;;;;;;;12.52;91.66;98705.72;312353;31;6158;-73
2023/01/19 00:49:19;;;;;;;379.50;194.87;;;;;;;12.56;91.13;98704.59;312477;31;4010;-73
2023/01/19 00:49:29;;;;;;;383.73;194.50;;;;;;;12.59;90.69;98702.59;314764;31;6344;-73
2023/01/19 00:49:39;;;;;;;382.23;191.77;;;;;;;12.62;90.68;98697.16;312566;31;4462;-71
2023/01/19 00:49:50;;;;;;;381.60;192.10;;;;;;;12.62;90.87;98702.41;313109;31;6267;-71
2023/01/19 00:50:01;;;;;;;381.92;192.07;;;;;;;12.63;90.74;98705.88;304908;32;5294;-71
2023/01/19 00:50:11;;;;;;;381.95;191.60;;;;;;;12.63;90.48;98711.97;306640;31;3828;-71
2023/01/19 00:50:23;;;;;;;389.30;191.27;;;;;;;12.64;90.56;98710.19;305758;31;5418;-71
2023/01/19 00:50:33;;;;;;;389.45;190.90;;;;;;;12.63;90.26;98711.13;305621;32;4117;-71
2023/01/19 00:50:43;;;;;;;394.80;191.73;;;;;;;12.63;90.17;98711.97;303008;32;4709;-71
2023/01/19 00:50:54;;;;;;;390.95;190.00;;;;;;;12.63;90.10;98709.34;302248;32;6068;-71
2023/01/19 00:51:04;;;;;;;390.83;190.60;;;;;;;12.65;90.07;98717.97;300389;32;5733;-71
2023/01/19 00:51:15;;;;;;;387.25;193.63;;;;;;;12.65;89.88;98709.25;305664;32;5974;-71
2023/01/19 00:51:25;;;;;;;386.87;193.10;;;;;;;12.65;89.36;98711.88;306104;32;3757;-72
2023/01/19 00:51:35;;;;;;;387.57;195.13;;;;;;;12.74;86.16;98703.41;301569;32;6423;-72
2023/01/19 00:51:46;;;;;;;386.52;193.40;;;;;;;12.84;84.46;98711.53;299614;32;3997;-72
2023/01/19 00:51:56;;;;;;;384.03;196.60;;;;;;;12.88;84.66;98706.00;296021;32;6115;-72
2023/01/19 00:52:06;;;;;;;386.23;196.70;;;;;;;12.91;84.76;98699.69;296060;32;5119;-71
2023/01/19 00:52:17;;;;;;;388.17;201.83;;;;;;;12.96;82.52;98708.97;297536;32;6181;-71
2023/01/19 00:52:27;;;;;;;389.73;205.47;;;;;;;13.02;82.24;98691.94;296896;32;5549;-71
2023/01/19 00:52:38;;;;;;;391.20;209.93;;;;;;;13.05;81.57;98698.78;293245;32;6452;-71
2023/01/19 00:52:49;;;;;;;391.83;214.07;;;;;;;13.10;81.14;98704.56;296986;33;1479;-72
2023/01/19 00:53:00;;;;;;;392.25;215.13;;;;;;;13.17;80.89;98690.97;292481;33;6448;-72
2023/01/19 00:53:10;;;;;;;386.27;213.35;;;;;;;13.18;81.12;98697.06;292850;33;6132;-72
2023/01/19 00:53:20;;;;;;;381.93;210.43;;;;;;;13.20;80.60;98695.19;292638;33;6644;-72
2023/01/19 00:53:31;;;;;;;381.45;207.57;;;;;;;13.19;80.71;98693.50;291930;33;886;-72
2023/01/19 00:53:41;;;;;;;382.47;205.10;;;;;;;13.21;79.08;98695.06;287478;34;4931;-72
2023/01/19 00:53:52;;;;;;;380.30;196.93;;;;;;;13.25;78.23;98687.84;287709;33;5389;-72